Time;durP1;ratioP1;P1;durP2;ratioP2;P2;SDS_P1;SDS_P2;PMS_P1;PMS_P2;Temp;Humidity;BMP_temperature;BMP_pressure;BME280_temperature;BME280_humidity;BME280_pressure;Samples;Min_cycle;Max_cycle;Signal;HPM_P1;HPM_P2
2024/01/04 00:01:34;;;;;;;4.70;1.40;;;;;;;8.23;82.52;97968.98;130341;1254;115033;-68
2024/01/04 00:04:39;;;;;;;4.30;1.70;;;;;;;8.20;82.64;97968.48;130422;1257;114713;-68
2024/01/04 00:07:41;;;;;;;8.40;3.40;;;;;;;8.16;82.78;97970.52;130168;1264;114720;-68
2024/01/04 00:10:46;;;;;;;6.20;2.80;;;;;;;8.13;82.79;97967.41;130279;1257;114641;-67
2024/01/04 00:13:48;;;;;;;4.00;1.90;;;;;;;8.11;82.59;97969.33;129994;1274;116718;-67
2024/01/04 00:16:49;;;;;;;4.10;1.60;;;;;;;8.09;82.62;97966.32;130216;1258;114822;-68
2024/01/04 00:19:51;;;;;;;5.10;1.50;;;;;;;8.07;82.70;97969.83;130282;1257;115341;-68
2024/01/04 00:22:53;;;;;;;2.60;1.20;;;;;;;8.05;82.70;97977.79;130197;1254;115346;-68
2024/01/04 00:25:55;;;;;;;4.70;2.00;;;;;;;8.05;82.85;97973.99;130243;1258;114699;-68
2024/01/04 00:28:57;;;;;;;3.40;2.30;;;;;;;8.08;83.18;97976.54;130248;1257;114807;-68
2024/01/04 00:31:59;;;;;;;4.00;1.50;;;;;;;8.10;83.14;97969.39;130244;1254;128783;-68
2024/01/04 00:35:01;;;;;;;2.50;1.20;;;;;;;8.12;83.32;97971.94;130258;1257;114766;-67
2024/01/04 00:38:03;;;;;;;2.90;1.50;;;;;;;8.14;83.40;97972.28;130117;1271;114844;-67
2024/01/04 00:41:05;;;;;;;7.20;2.60;;;;;;;8.16;83.23;97971.78;129884;1254;114785;-68
2024/01/04 00:44:07;;;;;;;3.10;1.70;;;;;;;8.20;83.42;97971.15;130182;1276;114744;-68
2024/01/04 00:47:09;;;;;;;3.10;1.20;;;;;;;8.24;83.28;97973.52;130246;1258;114765;-68
2024/01/04 00:50:11;;;;;;;2.40;1.20;;;;;;;8.28;83.09;97971.05;130055;1276;114799;-68
2024/01/04 00:53:12;;;;;;;3.30;1.10;;;;;;;8.32;83.24;97967.33;130216;1258;114725;-68
2024/01/04 00:56:14;;;;;;;2.80;1.10;;;;;;;8.36;83.02;97967.21;130248;1257;114728;-68
2024/01/04 00:59:16;;;;;;;2.40;1.00;;;;;;;8.40;83.15;97966.71;130227;1276;114900;-68
2024/01/04 01:02:18;;;;;;;3.40;1.70;;;;;;;8.44;83.04;97966.45;130158;1260;115289;-68
2024/01/04 01:05:20;;;;;;;4.80;2.10;;;;;;;8.47;83.12;97963.88;130196;1254;114711;-68
2024/01/04 01:08:22;;;;;;;3.20;1.00;;;;;;;8.49;83.22;97963.54;130118;1259;114777;-68
2024/01/04 01:11:24;;;;;;;2.90;1.10;;;;;;;8.52;83.14;97966.22;130183;1254;115224;-68
2024/01/04 01:14:26;;;;;;;3.70;1.30;;;;;;;8.54;83.47;97965.73;130218;1254;114696;-69
2024/01/04 01:17:27;;;;;;;2.40;1.40;;;;;;;8.54;83.39;97960.17;130173;1260;129003;-69
2024/01/04 01:20:29;;;;;;;2.70;1.30;;;;;;;8.55;83.58;97957.95;130217;1268;116337;-68
2024/01/04 01:23:31;;;;;;;3.20;1.20;;;;;;;8.56;83.33;97955.59;130223;1276;114743;-68
2024/01/04 01:26:33;;;;;;;3.30;1.20;;;;;;;8.57;83.45;97952.99;130305;1254;114628;-68
2024/01/04 01:29:35;;;;;;;2.00;1.00;;;;;;;8.57;83.59;97952.60;130261;1276;115206;-68
2024/01/04 01:32:37;;;;;;;3.20;1.50;;;;;;;8.59;83.45;97956.22;130372;1260;114754;-69
2024/01/04 01:35:39;;;;;;;2.40;1.00;;;;;;;8.60;83.58;97958.09;129925;1263;114865;-69
2024/01/04 01:38:41;;;;;;;3.60;1.10;;;;;;;8.62;83.40;97960.27;130213;1254;114758;-68
2024/01/04 01:41:43;;;;;;;2.80;1.30;;;;;;;8.63;83.54;97963.14;130297;1257;114684;-68
2024/01/04 01:44:45;;;;;;;3.50;1.00;;;;;;;8.65;83.49;97960.35;130122;1257;114771;-69
2024/01/04 01:47:47;;;;;;;1.80;0.90;;;;;;;8.67;83.57;97958.95;130284;1254;114802;-69
2024/01/04 01:50:49;;;;;;;3.30;1.10;;;;;;;8.68;83.68;97960.46;130245;1258;114810;-69
2024/01/04 01:53:51;;;;;;;2.70;1.50;;;;;;;8.70;83.62;97962.48;130206;1267;114614;-68
2024/01/04 01:56:53;;;;;;;2.50;1.50;;;;;;;8.72;83.70;97964.48;130130;1277;114705;-69
2024/01/04 01:59:55;;;;;;;2.90;1.00;;;;;;;8.73;83.93;97962.61;129931;1260;114817;-68
2024/01/04 02:02:59;;;;;;;3.00;1.10;;;;;;;8.74;83.70;97967.52;130278;1267;115162;-68
2024/01/04 02:06:00;;;;;;;2.90;0.80;;;;;;;8.73;83.81;97970.91;130290;1258;114714;-69
2024/01/04 02:09:02;;;;;;;3.20;0.90;;;;;;;8.74;83.85;97970.14;130274;1269;114814;-68
2024/01/04 02:12:06;;;;;;;1.90;1.10;;;;;;;8.75;83.78;97971.86;130302;1261;114894;-69
2024/01/04 02:15:08;;;;;;;2.50;1.40;;;;;;;8.75;84.03;97970.09;130270;1259;114782;-68
2024/01/04 02:18:10;;;;;;;1.70;1.00;;;;;;;8.75;84.14;97971.31;130174;1259;115301;-69
2024/01/04 02:21:12;;;;;;;1.90;0.90;;;;;;;8.75;84.13;97969.20;130242;1254;115719;-68
2024/01/04 02:24:14;;;;;;;3.30;0.90;;;;;;;8.75;84.17;97969.36;129871;1276;128026;-68
2024/01/04 02:27:17;;;;;;;2.10;1.50;;;;;;;8.76;84.25;97969.13;130144;1264;114703;-67
2024/01/04 02:30:19;;;;;;;2.20;1.40;;;;;;;8.76;84.22;97971.63;130307;1257;114712;-68
2024/01/04 02:33:21;;;;;;;4.60;1.40;;;;;;;8.76;84.30;97973.02;130276;1258;115109;-68
2024/01/04 02:36:25;;;;;;;2.20;1.10;;;;;;;8.77;84.27;97976.35;130092;1254;114894;-68
2024/01/04 02:39:27;;;;;;;3.30;1.60;;;;;;;8.77;84.11;97977.60;130345;1258;114686;-69
2024/01/04 02:42:30;;;;;;;3.10;1.00;;;;;;;8.76;84.23;97980.11;130168;1253;114721;-68
2024/01/04 02:45:32;;;;;;;3.40;0.80;;;;;;;8.78;84.29;97986.25;130227;1257;114767;-68
2024/01/04 02:48:34;;;;;;;3.00;1.10;;;;;;;8.78;84.54;97990.50;130237;1253;115157;-68
2024/01/04 02:51:36;;;;;;;2.80;1.00;;;;;;;8.78;84.72;97995.48;130221;1270;114683;-69
2024/01/04 02:54:38;;;;;;;1.70;0.90;;;;;;;8.76;84.86;97991.86;130208;1254;115090;-68
2024/01/04 02:57:40;;;;;;;5.10;0.90;;;;;;;8.73;84.98;97993.00;130287;1258;114753;-69
2024/01/04 03:00:42;;;;;;;1.70;0.70;;;;;;;8.69;84.91;97990.50;129850;1262;115000;-69
2024/01/04 03:03:43;;;;;;;2.50;0.60;;;;;;;8.66;85.20;97991.98;130194;1254;114754;-68
2024/01/04 03:06:45;;;;;;;1.60;0.80;;;;;;;8.63;85.36;97990.92;130283;1260;114757;-68
2024/01/04 03:09:48;;;;;;;1.20;0.70;;;;;;;8.59;85.29;97998.36;130264;1257;114738;-68
2024/01/04 03:12:50;;;;;;;1.20;0.40;;;;;;;8.57;85.58;97997.14;130282;1257;114681;-68
2024/01/04 03:15:52;;;;;;;1.40;0.50;;;;;;;8.54;85.39;98002.33;130229;1257;114713;-68
2024/01/04 03:18:54;;;;;;;2.60;0.70;;;;;;;8.51;85.46;98006.63;130329;1258;114715;-68
2024/01/04 03:21:56;;;;;;;1.70;0.40;;;;;;;8.48;85.75;98008.46;129866;1276;114808;-68
2024/01/04 03:24:57;;;;;;;0.90;0.30;;;;;;;8.46;85.75;98012.88;130203;1257;114732;-68
2024/01/04 03:27:59;;;;;;;2.00;0.60;;;;;;;8.43;85.97;98007.94;130255;1257;114712;-68
2024/01/04 03:31:01;;;;;;;2.10;0.80;;;;;;;8.41;86.12;98008.45;130255;1257;114740;-67
2024/01/04 03:34:03;;;;;;;1.90;0.70;;;;;;;8.38;86.03;98005.13;130254;1258;114670;-68
2024/01/04 03:37:05;;;;;;;1.30;0.40;;;;;;;8.35;86.63;98006.20;130238;1257;114978;-69
2024/01/04 03:40:08;;;;;;;1.10;0.30;;;;;;;8.33;86.56;98007.52;130250;1258;114718;-70
2024/01/04 03:43:09;;;;;;;1.50;0.70;;;;;;;8.30;86.69;98009.27;130197;1253;115298;-70
2024/01/04 03:46:11;;;;;;;1.30;0.60;;;;;;;8.28;86.83;98006.42;130320;1257;114709;-70
2024/01/04 03:49:13;;;;;;;1.30;0.80;;;;;;;8.26;86.85;98006.42;130010;1262;128393;-70
2024/01/04 03:52:15;;;;;;;1.00;0.40;;;;;;;8.23;86.88;98008.77;130226;1257;114701;-70
2024/01/04 03:55:17;;;;;;;0.90;0.40;;;;;;;8.20;87.18;98011.25;130300;1257;114723;-70
2024/01/04 03:58:19;;;;;;;0.90;0.50;;;;;;;8.20;87.31;98011.86;130218;1253;114699;-70
2024/01/04 04:01:21;;;;;;;1.20;0.80;;;;;;;8.17;87.13;98014.54;130203;1254;114755;-70
2024/01/04 04:04:24;;;;;;;0.70;0.20;;;;;;;8.14;87.25;98014.77;130300;1269;114773;-70
2024/01/04 04:07:26;;;;;;;1.00;0.60;;;;;;;8.11;87.41;98019.98;130218;1257;114821;-70
2024/01/04 04:10:28;;;;;;;1.30;0.60;;;;;;;8.09;87.52;98024.23;130199;1254;114719;-70
2024/01/04 04:13:32;;;;;;;2.40;0.50;;;;;;;8.08;87.39;98017.22;130259;1257;114728;-70
2024/01/04 04:16:39;;;;;;;1.10;0.30;;;;;;;8.06;87.59;98020.91;130293;1254;115289;-69
2024/01/04 04:19:41;;;;;;;0.50;0.20;;;;;;;8.03;87.62;98018.77;129994;1262;114898;-70
2024/01/04 04:22:42;;;;;;;1.10;0.30;;;;;;;8.02;87.36;98017.33;130244;1257;114791;-70
2024/01/04 04:25:44;;;;;;;0.90;0.30;;;;;;;8.01;87.61;98020.96;130243;1254;114777;-69
2024/01/04 04:28:49;;;;;;;0.90;0.30;;;;;;;7.99;87.94;98023.76;130237;1253;115427;-69
2024/01/04 04:31:51;;;;;;;1.80;0.60;;;;;;;7.97;87.60;98026.78;130123;1253;128994;-70
2024/01/04 04:34:53;;;;;;;1.30;0.80;;;;;;;7.95;87.74;98023.86;130191;1254;114748;-69
2024/01/04 04:37:55;;;;;;;1.00;0.60;;;;;;;7.93;87.67;98026.67;130372;1258;114711;-69
2024/01/04 04:40:57;;;;;;;1.40;0.30;;;;;;;7.93;87.92;98028.50;130139;1257;114852;-70
2024/01/04 04:43:59;;;;;;;1.30;0.50;;;;;;;7.91;87.91;98027.01;130481;1257;115335;-70
2024/01/04 04:47:00;;;;;;;0.40;0.10;;;;;;;7.90;88.07;98032.20;130530;1258;115280;-69
2024/01/04 04:50:03;;;;;;;1.30;1.00;;;;;;;7.91;87.91;98033.77;133502;1259;114644;-69
2024/01/04 04:53:05;;;;;;;1.30;0.60;;;;;;;7.90;87.94;98037.73;130302;1254;114783;-69
2024/01/04 04:56:11;;;;;;;1.20;0.30;;;;;;;7.91;87.88;98037.33;130283;1254;116160;-69
2024/01/04 04:59:13;;;;;;;1.00;0.60;;;;;;;7.90;87.84;98042.55;129896;1264;114849;-69
2024/01/04 05:02:16;;;;;;;1.60;0.50;;;;;;;7.90;88.04;98043.24;130218;1257;115417;-69
2024/01/04 05:05:17;;;;;;;0.60;0.40;;;;;;;7.90;88.22;98041.27;130264;1257;114847;-69
2024/01/04 05:08:19;;;;;;;1.10;0.60;;;;;;;7.90;88.13;98047.65;130223;1268;114810;-68
2024/01/04 05:11:21;;;;;;;0.90;0.50;;;;;;;7.90;88.09;98044.80;130192;1273;115237;-70
2024/01/04 05:14:23;;;;;;;1.80;0.70;;;;;;;7.90;88.03;98046.98;130335;1257;114717;-69
2024/01/04 05:17:25;;;;;;;2.10;0.40;;;;;;;7.90;88.41;98048.38;129826;1264;128014;-69
2024/01/04 05:20:27;;;;;;;0.90;0.50;;;;;;;7.91;88.46;98050.64;130342;1276;115180;-69
2024/01/04 05:23:29;;;;;;;1.80;0.70;;;;;;;7.90;88.14;98048.92;130436;1257;114973;-69
2024/01/04 05:26:32;;;;;;;3.10;0.50;;;;;;;7.90;88.40;98047.49;130222;1269;114751;-68
2024/01/04 05:29:34;;;;;;;0.70;0.50;;;;;;;7.90;88.36;98049.33;130311;1257;114646;-68
2024/01/04 05:32:36;;;;;;;1.40;0.30;;;;;;;7.89;88.30;98049.39;130258;1257;115446;-69
2024/01/04 05:35:38;;;;;;;1.30;0.60;;;;;;;7.88;88.25;98047.14;130254;1269;114751;-69
2024/01/04 05:38:40;;;;;;;1.70;0.50;;;;;;;7.87;88.28;98046.11;130180;1253;128763;-69
2024/01/04 05:41:42;;;;;;;2.20;1.10;;;;;;;7.88;88.37;98048.88;130197;1258;114737;-69
2024/01/04 05:44:44;;;;;;;1.30;0.90;;;;;;;7.89;88.45;98051.70;130295;1254;114725;-69
2024/01/04 05:47:45;;;;;;;2.60;0.60;;;;;;;7.90;88.49;98057.29;129862;1262;114616;-69
2024/01/04 05:50:49;;;;;;;2.00;0.80;;;;;;;7.91;88.72;98059.36;130150;1258;114645;-69
2024/01/04 05:53:51;;;;;;;3.40;0.80;;;;;;;7.90;88.29;98057.66;130084;1277;115192;-69
2024/01/04 05:56:52;;;;;;;2.00;0.30;;;;;;;7.90;88.73;98059.23;130206;1259;114721;-69
2024/01/04 05:59:54;;;;;;;0.70;0.40;;;;;;;7.89;88.59;98061.77;130121;1258;128562;-70
2024/01/04 06:02:56;;;;;;;1.50;0.80;;;;;;;7.89;88.83;98065.85;130035;1262;114864;-70
2024/01/04 06:05:58;;;;;;;1.90;0.80;;;;;;;7.89;88.68;98072.41;130214;1259;116263;-70
2024/01/04 06:09:00;;;;;;;2.00;0.40;;;;;;;7.90;89.07;98075.23;129949;1269;114693;-70
2024/01/04 06:12:02;;;;;;;3.20;0.80;;;;;;;7.89;88.98;98072.61;130252;1257;115186;-69
2024/01/04 06:15:05;;;;;;;1.70;0.90;;;;;;;7.90;88.82;98072.23;130154;1254;114759;-69
2024/01/04 06:18:08;;;;;;;1.90;0.50;;;;;;;7.90;88.67;98076.48;130125;1255;114719;-69
2024/01/04 06:21:10;;;;;;;1.30;0.80;;;;;;;7.91;88.76;98076.59;130140;1254;114799;-69
2024/01/04 06:24:11;;;;;;;1.10;0.50;;;;;;;7.89;88.70;98076.55;130174;1277;114853;-67
2024/01/04 06:27:13;;;;;;;1.70;0.90;;;;;;;7.88;88.55;98079.13;130208;1254;114715;-69
2024/01/04 06:30:15;;;;;;;1.50;0.70;;;;;;;7.88;88.49;98076.97;130143;1254;114709;-69
2024/01/04 06:33:17;;;;;;;1.10;0.60;;;;;;;7.88;88.85;98080.17;130174;1254;114779;-69
2024/01/04 06:36:19;;;;;;;2.20;0.90;;;;;;;7.88;89.09;98083.39;130202;1259;114776;-69
2024/01/04 06:39:21;;;;;;;1.50;1.10;;;;;;;7.88;88.67;98082.85;129839;1263;115071;-69
2024/01/04 06:42:23;;;;;;;2.00;0.70;;;;;;;7.87;88.88;98082.73;130126;1254;114975;-69
2024/01/04 06:45:25;;;;;;;2.50;1.00;;;;;;;7.87;88.73;98084.18;130367;1259;114739;-69
2024/01/04 06:48:27;;;;;;;3.00;1.50;;;;;;;7.86;89.05;98084.81;130322;1258;115189;-69
2024/01/04 06:51:29;;;;;;;3.70;2.30;;;;;;;7.84;88.87;98084.23;130216;1257;114827;-68
2024/01/04 06:54:31;;;;;;;2.50;1.60;;;;;;;7.82;88.90;98088.98;130249;1257;114873;-69
2024/01/04 06:57:33;;;;;;;3.40;1.60;;;;;;;7.81;88.72;98090.46;130010;1256;114882;-69
2024/01/04 07:00:36;;;;;;;3.20;1.80;;;;;;;7.81;88.93;98092.23;130177;1254;114798;-69
2024/01/04 07:03:38;;;;;;;3.40;2.10;;;;;;;7.81;88.74;98096.71;130227;1254;114858;-69
2024/01/04 07:06:40;;;;;;;2.60;1.30;;;;;;;7.81;89.02;98104.70;130038;1262;114800;-69
2024/01/04 07:09:42;;;;;;;3.70;1.30;;;;;;;7.81;88.82;98108.44;130161;1259;114735;-69
2024/01/04 07:12:44;;;;;;;2.10;1.10;;;;;;;7.81;88.88;98110.61;130172;1261;115404;-69
2024/01/04 07:15:46;;;;;;;2.30;1.40;;;;;;;7.80;88.94;98113.32;130322;1254;114710;-69
2024/01/04 07:18:48;;;;;;;2.30;1.10;;;;;;;7.80;88.68;98114.54;130253;1258;114744;-69
2024/01/04 07:21:49;;;;;;;4.60;1.00;;;;;;;7.81;88.71;98115.54;130208;1259;114689;-69
2024/01/04 07:24:51;;;;;;;2.80;1.70;;;;;;;7.82;89.01;98117.08;130395;1270;114762;-69
2024/01/04 07:27:53;;;;;;;3.20;1.50;;;;;;;7.83;88.62;98122.16;130243;1254;128945;-71
2024/01/04 07:30:55;;;;;;;2.90;1.90;;;;;;;7.85;88.63;98120.52;130192;1253;114727;-69
2024/01/04 07:33:59;;;;;;;2.30;1.40;;;;;;;7.87;89.09;98121.27;130245;1254;114795;-69
2024/01/04 07:37:01;;;;;;;3.00;1.00;;;;;;;7.90;88.53;98123.73;129991;1254;114732;-69
2024/01/04 07:40:03;;;;;;;2.20;1.40;;;;;;;7.93;88.61;98123.92;130171;1259;114898;-68
2024/01/04 07:43:06;;;;;;;4.10;1.50;;;;;;;7.95;88.55;98129.24;130270;1258;114674;-68
2024/01/04 07:46:08;;;;;;;2.70;1.10;;;;;;;7.96;88.56;98130.27;129902;1259;114830;-68
2024/01/04 07:49:10;;;;;;;2.60;1.00;;;;;;;7.97;88.54;98131.08;130234;1258;114757;-68
2024/01/04 07:52:12;;;;;;;2.80;1.40;;;;;;;7.99;88.29;98134.87;130161;1259;114611;-68
2024/01/04 07:55:14;;;;;;;2.80;1.20;;;;;;;8.01;88.17;98133.82;130207;1254;114778;-68
2024/01/04 07:58:16;;;;;;;3.50;1.40;;;;;;;8.02;88.32;98135.83;130206;1256;114776;-68
2024/01/04 08:01:18;;;;;;;3.50;1.90;;;;;;;8.06;88.07;98137.35;130344;1258;114718;-68
2024/01/04 08:04:21;;;;;;;2.70;1.30;;;;;;;8.08;88.01;98137.76;130197;1276;114709;-68
2024/01/04 08:07:23;;;;;;;2.70;1.20;;;;;;;8.10;87.83;98141.69;130154;1254;114767;-68
2024/01/04 08:10:26;;;;;;;1.90;0.90;;;;;;;8.11;87.57;98143.54;130179;1256;114716;-67
2024/01/04 08:13:28;;;;;;;3.40;1.60;;;;;;;8.13;87.93;98145.36;130207;1259;114942;-68
2024/01/04 08:16:30;;;;;;;2.00;0.90;;;;;;;8.14;87.23;98144.79;129987;1261;114847;-68
2024/01/04 08:19:32;;;;;;;1.90;0.70;;;;;;;8.16;87.20;98144.94;130157;1258;114716;-69
2024/01/04 08:22:35;;;;;;;3.10;0.90;;;;;;;8.19;86.83;98149.75;130229;1258;115091;-68
2024/01/04 08:25:37;;;;;;;1.30;0.70;;;;;;;8.22;87.02;98148.04;130176;1259;114795;-68
2024/01/04 08:28:39;;;;;;;1.70;0.70;;;;;;;8.27;86.90;98150.39;130137;1259;114732;-68
2024/01/04 08:31:41;;;;;;;1.90;0.50;;;;;;;8.33;86.76;98147.63;130239;1259;114687;-68
2024/01/04 08:34:42;;;;;;;1.30;0.50;;;;;;;8.39;86.22;98151.09;129940;1259;127557;-68
2024/01/04 08:37:46;;;;;;;2.30;0.70;;;;;;;8.42;86.31;98151.01;130122;1259;114699;-68
2024/01/04 08:40:48;;;;;;;1.30;0.50;;;;;;;8.44;86.10;98154.24;129966;1259;115008;-68
2024/01/04 08:43:51;;;;;;;0.80;0.40;;;;;;;8.45;85.95;98159.33;130354;1270;115090;-68
2024/01/04 08:46:53;;;;;;;1.00;0.80;;;;;;;8.45;85.77;98157.73;130214;1254;115410;-68
2024/01/04 08:50:00;;;;;;;1.70;0.70;;;;;;;8.46;85.84;98164.08;130210;1256;114709;-68
2024/01/04 08:53:01;;;;;;;5.80;3.40;;;;;;;8.49;85.79;98166.02;130171;1275;127858;-69
2024/01/04 08:56:09;;;;;;;1.50;0.60;;;;;;;8.54;85.74;98172.63;130225;1259;114707;-69
2024/01/04 08:59:11;;;;;;;0.80;0.40;;;;;;;8.59;85.63;98180.55;129896;1260;114882;-69
2024/01/04 09:02:13;;;;;;;2.50;1.20;;;;;;;8.64;85.76;98181.95;130231;1254;115174;-68
2024/01/04 09:05:15;;;;;;;2.20;0.90;;;;;;;8.69;85.99;98182.48;130388;1254;114990;-68
2024/01/04 09:08:17;;;;;;;1.60;0.60;;;;;;;8.71;85.78;98190.14;130003;1262;114689;-68
2024/01/04 09:11:19;;;;;;;0.70;0.30;;;;;;;8.72;85.77;98193.30;130195;1255;114754;-69
2024/01/04 09:14:21;;;;;;;0.90;0.70;;;;;;;8.71;85.99;98199.77;130343;1259;114721;-69
2024/01/04 09:17:25;;;;;;;1.00;0.50;;;;;;;8.73;86.10;98204.78;130287;1259;114729;-69
2024/01/04 09:20:28;;;;;;;2.00;0.50;;;;;;;8.76;86.10;98208.10;129947;1254;114924;-68
2024/01/04 09:23:30;;;;;;;1.30;0.70;;;;;;;8.81;86.18;98210.55;130252;1254;114708;-68
2024/01/04 09:26:32;;;;;;;1.80;0.90;;;;;;;8.84;86.10;98211.25;130385;1259;114713;-68
2024/01/04 09:29:34;;;;;;;1.10;0.50;;;;;;;8.86;85.94;98213.60;130075;1253;114810;-68
2024/01/04 09:32:36;;;;;;;2.20;0.90;;;;;;;8.86;86.15;98219.09;130177;1258;114772;-69
2024/01/04 09:35:38;;;;;;;1.70;0.60;;;;;;;8.89;86.07;98225.27;130183;1259;115341;-69
2024/01/04 09:38:40;;;;;;;1.60;1.00;;;;;;;8.88;85.96;98229.67;130285;1258;114689;-69
2024/01/04 09:41:44;;;;;;;1.40;0.70;;;;;;;8.83;86.07;98227.85;130367;1257;114823;-69
2024/01/04 09:44:47;;;;;;;1.30;0.70;;;;;;;8.82;86.00;98235.98;130091;1255;114696;-69
2024/01/04 09:47:54;;;;;;;4.10;2.10;;;;;;;8.78;85.83;98244.10;130318;1259;114824;-69
2024/01/04 09:50:56;;;;;;;2.00;1.00;;;;;;;8.72;86.16;98251.66;129954;1266;128126;-70
2024/01/04 09:53:58;;;;;;;2.10;1.40;;;;;;;8.67;86.53;98252.56;130202;1276;114745;-69
2024/01/04 09:57:00;;;;;;;2.10;1.20;;;;;;;8.60;86.34;98248.83;130320;1259;114767;-68
2024/01/04 10:00:03;;;;;;;1.80;0.70;;;;;;;8.61;87.05;98235.60;129791;1254;114898;-68
2024/01/04 10:03:07;;;;;;;1.60;0.80;;;;;;;8.65;86.97;98229.38;129791;1254;116454;-69
2024/01/04 10:06:10;;;;;;;1.30;0.60;;;;;;;8.70;87.16;98223.56;129824;1255;114820;-68
2024/01/04 10:09:18;;;;;;;1.30;0.60;;;;;;;8.70;86.91;98221.78;129945;1260;114799;-69
2024/01/04 10:12:21;;;;;;;1.30;0.80;;;;;;;8.63;86.21;98230.42;130241;1254;114697;-69
2024/01/04 10:15:23;;;;;;;1.60;0.50;;;;;;;8.58;86.02;98232.82;129980;1260;114776;-69
2024/01/04 10:18:29;;;;;;;2.60;1.00;;;;;;;8.55;85.85;98240.31;130308;1277;114706;-68
2024/01/04 10:21:34;;;;;;;1.10;0.50;;;;;;;8.57;85.93;98241.77;130042;1258;114818;-69
2024/01/04 10:24:39;;;;;;;5.90;1.40;;;;;;;8.59;85.99;98240.52;129853;1260;114902;-69
2024/01/04 10:27:40;;;;;;;2.70;1.30;;;;;;;8.68;86.50;98244.70;129922;1256;129039;-68
2024/01/04 10:30:42;;;;;;;4.90;1.90;;;;;;;8.75;86.22;98247.14;130195;1268;114703;-69
2024/01/04 10:33:45;;;;;;;2.30;1.10;;;;;;;8.82;86.14;98252.91;130199;1259;115108;-69
2024/01/04 10:36:47;;;;;;;5.30;1.80;;;;;;;8.87;85.92;98250.38;129996;1259;114757;-68
2024/01/04 10:39:57;;;;;;;2.20;0.90;;;;;;;8.90;85.79;98252.63;130185;1258;114685;-68
2024/01/04 10:43:01;;;;;;;2.90;1.10;;;;;;;8.97;85.94;98249.46;130007;1256;114857;-69
2024/01/04 10:46:10;;;;;;;1.10;0.40;;;;;;;9.10;85.91;98247.24;130209;1259;128393;-69
2024/01/04 10:49:16;;;;;;;1.60;0.90;;;;;;;9.20;85.38;98243.80;130310;1259;114633;-68
2024/01/04 10:52:21;;;;;;;2.60;0.60;;;;;;;9.26;85.21;98244.20;130276;1257;115159;-68
2024/01/04 10:55:24;;;;;;;2.90;0.70;;;;;;;9.32;84.89;98247.30;130289;1277;114712;-69
2024/01/04 10:58:26;;;;;;;2.30;0.50;;;;;;;9.37;84.99;98243.33;130388;1260;114713;-67
2024/01/04 11:01:28;;;;;;;2.00;0.40;;;;;;;9.52;85.07;98235.82;130117;1259;114789;-68
2024/01/04 11:04:30;;;;;;;1.50;0.60;;;;;;;9.65;85.07;98234.20;130226;1256;114772;-68
2024/01/04 11:07:33;;;;;;;2.00;0.60;;;;;;;9.76;84.91;98234.62;129838;1277;114992;-68
2024/01/04 11:10:35;;;;;;;2.30;0.40;;;;;;;9.82;84.73;98233.65;129994;1269;244332;-68
2024/01/04 11:13:37;;;;;;;1.40;0.80;;;;;;;9.78;84.01;98234.64;130209;1259;114644;-68
2024/01/04 11:17:02;;;;;;;2.50;1.90;;;;;;;9.72;83.81;98234.56;130257;1259;114704;-68
2024/01/04 11:20:08;;;;;;;2.10;1.60;;;;;;;9.69;83.90;98233.94;130215;1259;114652;-68
2024/01/04 11:23:42;;;;;;;1.80;0.90;;;;;;;9.66;83.79;98230.02;130149;1257;127834;-68
2024/01/04 11:26:52;;;;;;;2.00;0.70;;;;;;;9.60;83.26;98230.89;129768;1262;114781;-68
2024/01/04 11:29:55;;;;;;;1.70;0.70;;;;;;;9.52;83.10;98236.86;130170;1277;114854;-68
2024/01/04 11:32:57;;;;;;;1.80;1.30;;;;;;;9.51;83.52;98230.34;130024;1257;114736;-68
2024/01/04 11:35:58;;;;;;;2.10;1.10;;;;;;;9.53;83.42;98234.27;130224;1258;114783;-68
2024/01/04 11:39:00;;;;;;;2.30;1.00;;;;;;;9.55;83.36;98233.27;130152;1257;114712;-68
2024/01/04 11:42:13;;;;;;;1.70;0.80;;;;;;;9.57;83.51;98239.34;130163;1261;114859;-68
2024/01/04 11:45:18;;;;;;;2.90;1.30;;;;;;;9.55;83.06;98234.61;130125;1259;115332;-68
2024/01/04 11:48:20;;;;;;;1.70;0.60;;;;;;;9.56;83.07;98236.04;130341;1259;114776;-68
2024/01/04 11:51:40;;;;;;;1.30;0.60;;;;;;;9.56;82.47;98233.14;130156;1257;114723;-68
2024/01/04 11:54:42;;;;;;;1.30;0.60;;;;;;;9.57;82.54;98230.79;130240;1277;114735;-68
2024/01/04 11:57:44;;;;;;;1.90;1.00;;;;;;;9.55;82.20;98227.51;130258;1259;114718;-69
2024/01/04 12:00:50;;;;;;;1.60;0.50;;;;;;;9.52;81.82;98226.82;130007;1260;115112;-69
2024/01/04 12:03:52;;;;;;;2.00;0.90;;;;;;;9.50;81.70;98226.84;130218;1259;114846;-69
2024/01/04 12:06:56;;;;;;;1.30;0.50;;;;;;;9.48;81.86;98222.02;130181;1256;114694;-69
2024/01/04 12:09:59;;;;;;;1.20;0.60;;;;;;;9.48;81.45;98221.73;130281;1259;116753;-68
2024/01/04 12:13:01;;;;;;;2.00;0.90;;;;;;;9.48;81.50;98225.27;130116;1259;114776;-67
2024/01/04 12:16:06;;;;;;;2.10;1.20;;;;;;;9.51;81.48;98223.01;130225;1259;114808;-68
2024/01/04 12:19:09;;;;;;;2.10;1.00;;;;;;;9.56;81.30;98214.06;130154;1259;114748;-67
2024/01/04 12:22:11;;;;;;;1.90;1.10;;;;;;;9.61;81.18;98214.91;130175;1259;114680;-68
2024/01/04 12:25:13;;;;;;;1.70;0.90;;;;;;;9.64;81.14;98216.52;130359;1277;114693;-67
2024/01/04 12:28:15;;;;;;;1.10;0.70;;;;;;;9.65;81.28;98218.04;129980;1262;114899;-67
2024/01/04 12:31:17;;;;;;;1.60;0.80;;;;;;;9.65;81.02;98218.73;130096;1277;115240;-67
2024/01/04 12:34:18;;;;;;;2.10;0.60;;;;;;;9.66;81.20;98222.79;130267;1257;114765;-67
2024/01/04 12:37:20;;;;;;;2.50;0.90;;;;;;;9.64;80.98;98217.02;130174;1259;128034;-67
2024/01/04 12:40:22;;;;;;;2.50;0.70;;;;;;;9.63;81.08;98226.21;130219;1256;114751;-68
2024/01/04 12:43:25;;;;;;;1.70;0.70;;;;;;;9.57;80.88;98247.11;130308;1259;114772;-67
2024/01/04 12:46:27;;;;;;;2.00;1.40;;;;;;;9.47;81.04;98293.41;129942;1277;115343;-69
2024/01/04 12:49:29;;;;;;;1.40;0.80;;;;;;;9.26;80.73;98298.36;130229;1275;114789;-69
2024/01/04 12:52:31;;;;;;;3.00;1.30;;;;;;;8.99;80.49;98291.88;130154;1256;114713;-68
2024/01/04 12:55:34;;;;;;;2.40;1.50;;;;;;;8.76;80.97;98300.87;130067;1258;114677;-69
2024/01/04 12:58:36;;;;;;;2.20;1.00;;;;;;;8.62;81.25;98311.13;130163;1270;115257;-69
2024/01/04 13:01:38;;;;;;;3.60;1.60;;;;;;;8.52;81.85;98318.29;130029;1278;115095;-68
2024/01/04 13:04:40;;;;;;;4.10;2.70;;;;;;;8.41;81.98;98326.84;130084;1256;114779;-69
2024/01/04 13:07:42;;;;;;;3.70;2.80;;;;;;;8.32;82.23;98324.09;129896;1255;114787;-68
2024/01/04 13:10:43;;;;;;;3.70;2.90;;;;;;;8.26;82.37;98332.77;130174;1258;114709;-69
2024/01/04 13:13:45;;;;;;;2.00;1.40;;;;;;;8.20;82.76;98335.45;130234;1257;114705;-70
2024/01/04 13:16:50;;;;;;;1.80;1.40;;;;;;;8.15;82.81;98331.91;129900;1274;115155;-68
2024/01/04 13:19:52;;;;;;;3.50;1.00;;;;;;;8.09;82.98;98337.12;130213;1258;128530;-70
2024/01/04 13:22:54;;;;;;;4.00;2.30;;;;;;;8.02;83.30;98336.33;130253;1272;114806;-70
2024/01/04 13:25:57;;;;;;;3.70;1.90;;;;;;;7.97;83.46;98342.56;130263;1268;114897;-69
2024/01/04 13:29:00;;;;;;;1.90;1.70;;;;;;;7.91;83.39;98345.86;130246;1259;114776;-71
2024/01/04 13:32:02;;;;;;;2.50;0.90;;;;;;;7.85;83.27;98351.81;130197;1256;114783;-70
2024/01/04 13:35:04;;;;;;;3.30;1.70;;;;;;;7.79;83.55;98353.84;130268;1261;115081;-70
2024/01/04 13:38:07;;;;;;;2.20;1.10;;;;;;;7.72;83.42;98357.10;130240;1258;114708;-72
2024/01/04 13:41:09;;;;;;;2.30;1.30;;;;;;;7.66;83.34;98359.84;129928;1256;126874;-70
2024/01/04 13:44:12;;;;;;;3.20;2.50;;;;;;;7.59;83.27;98362.48;130182;1256;114765;-69
2024/01/04 13:47:14;;;;;;;7.10;4.80;;;;;;;7.52;83.09;98365.74;130238;1259;114712;-70
2024/01/04 13:50:16;;;;;;;5.50;4.10;;;;;;;7.46;83.44;98375.94;130197;1256;114776;-71
2024/01/04 13:53:17;;;;;;;4.00;2.40;;;;;;;7.40;83.56;98392.65;130181;1259;115308;-70
2024/01/04 13:56:19;;;;;;;2.60;1.70;;;;;;;7.37;83.88;98386.12;130296;1259;114712;-69
2024/01/04 13:59:24;;;;;;;2.50;1.70;;;;;;;7.35;83.89;98380.93;129930;1277;116250;-68
2024/01/04 14:02:26;;;;;;;1.80;1.10;;;;;;;7.32;84.15;98385.96;129978;1257;128508;-68
2024/01/04 14:05:28;;;;;;;4.60;2.10;;;;;;;7.27;84.20;98393.91;130139;1258;114690;-67
2024/01/04 14:08:30;;;;;;;2.50;1.10;;;;;;;7.22;84.54;98405.98;130075;1262;114747;-68